Portada
METAR-TAF:

METAR-TAF

Aeropuertos :

Aeropuerto de Roma-Ciampino

Roma Ciampino, Italia

latitud: 41-47N, longitud: 012-35E, altitud: 129 m

Observación

El informe se hizo hace 40 minutos, a las 02:20 UTC
Viento 6 kt del norte
Temperatura 5°C
Humedad 70%
Presión 1009 hPa
Visibilidad 10 km o más
sin nubes por debajo de 1500 m y sin presencia de cumulonimbus.

METAR: LIRA 270220Z 01006KT CAVOK 05/M00 Q1009

Hora: 04:00 (03:00 UTC)

Pronóstico

El informe se hizo hace 4 horas y 0 minutos, a las 23:00 UTC
Pronóstico válido del 27 a las 00 UTC al 27 a las 24 UTC
Viento 8 kt del norte-noreste
Visibilidad 10 km o más
Nubes dispersas a una altura de 3000 ft
Evolucionando progresivamente
del 27 a las 12 UTC al 27 a las 14 UTC
Viento 10 kt del oeste-suroeste

TAF: LIRA 262300Z 2700/2724 02008KT 9999 SCT030 BECMG 2712/2714 24010KT

Observaciones y pronósticos meteorológicos de más de 4000 aeropuertos (mensajes METAR y TAF).

Los puntos amarillos y rojos representan las estaciones disponibles.

Ponga el ratón en el punto deseado para ver el nombre de la estación.

Haga clic para ver las observaciones y los pronósticos meteorológicos.

Para cambiar el mapa : haga clic en los botones verdes con una cruz de color negro para hacer un zoom, en el botón verde con un guión para alejar o en las flechas verdes para mapas adyacentes.


METAR-TAF: